Townsend, Virginia
Current Conditions -  °F | °C
As of 2:58 PM on Sunday 21 Dec 2014 (Local Time) from KLFI Reporting Station
Clear Clear  
Wind Chill: 37°   Ceiling: Unl
Heat Index: 42°   Visibility: 10mi
Dew Point: 31°   Wind: 9mph
Humidity: 66%   Direction: 40°NE
Pressure: 30.29"   Gusts: NA
Location:  37.18°N, 75.96°W
Report Text: KLFI 211958Z AUTO 04008KT 10SM CLR 06/00 A3029 RMK AO2 SLP264 T00561003 $
Loading
Personal Weather Stations






























Interactive Weather Map New forecast layout! Learn more

10-Day Weather Forecast

Advertisements
Track Severe Weather on mobile